Time;durP1;ratioP1;P1;durP2;ratioP2;P2;SDS_P1;SDS_P2;PMS_P1;PMS_P2;Temp;Humidity;BMP_temperature;BMP_pressure;BME280_temperature;BME280_humidity;BME280_pressure;Samples;Min_cycle;Max_cycle;Signal;HPM_P1;HPM_P2
2024/04/15 00:01:09;;;;;;;0.80;0.50;;;18.20;99.90;;;;;;5495044;26;20510;-60
2024/04/15 00:03:38;;;;;;;0.93;0.47;;;18.20;1.00;;;;;;5493352;26;20517;-59
2024/04/15 00:06:08;;;;;;;0.50;0.30;;;18.20;1.00;;;;;;5511594;26;20810;-59
2024/04/15 00:08:35;;;;;;;0.50;0.30;;;18.30;1.00;;;;;;5512900;26;20945;-60
2024/04/15 00:11:04;;;;;;;0.90;0.47;;;18.30;1.00;;;;;;5496540;26;20481;-60
2024/04/15 00:13:31;;;;;;;0.50;0.40;;;18.40;1.00;;;;;;5493891;26;20923;-60
2024/04/15 00:16:00;;;;;;;0.60;0.40;;;18.50;99.90;;;;;;5492773;26;20951;-60
2024/04/15 00:18:27;;;;;;;0.70;0.40;;;18.50;99.90;;;;;;5495291;26;20465;-60
2024/04/15 00:21:02;;;;;;;0.70;0.43;;;18.60;99.90;;;;;;5512056;26;20907;-60
2024/04/15 00:23:28;;;;;;;0.60;0.43;;;18.60;99.90;;;;;;5517486;26;20610;-60
2024/04/15 00:25:58;;;;;;;0.70;0.40;;;18.70;99.90;;;;;;5529296;26;20464;-61
2024/04/15 00:28:25;;;;;;;0.63;0.50;;;18.60;99.90;;;;;;5507564;26;20457;-60
2024/04/15 00:30:53;;;;;;;0.60;0.40;;;18.60;99.90;;;;;;5523602;26;20491;-60
2024/04/15 00:33:20;;;;;;;0.70;0.40;;;18.60;99.90;;;;;;5529934;26;20870;-60
2024/04/15 00:35:50;;;;;;;0.50;0.40;;;18.60;53.00;;;;;;5530635;26;20561;-60
2024/04/15 00:38:18;;;;;;;0.40;0.30;;;18.60;1.00;;;;;;5529421;26;20823;-60
2024/04/15 00:40:47;;;;;;;1.00;0.40;;;18.60;1.00;;;;;;5527924;26;20452;-61
2024/04/15 00:43:13;;;;;;;1.13;0.40;;;18.50;1.00;;;;;;5528967;26;20440;-59
2024/04/15 00:45:42;;;;;;;1.13;0.40;;;18.50;1.00;;;;;;5528413;26;20777;-60
2024/04/15 00:48:12;;;;;;;0.77;0.37;;;18.50;1.00;;;;;;5521471;26;20864;-59
2024/04/15 00:50:43;;;;;;;0.60;0.40;;;18.50;1.00;;;;;;5516765;26;20518;-60
2024/04/15 00:53:11;;;;;;;0.60;0.40;;;18.40;1.00;;;;;;5499983;26;20533;-64
2024/04/15 00:55:43;;;;;;;0.50;0.40;;;18.40;1.00;;;;;;5524577;26;20457;-61
2024/04/15 00:58:11;;;;;;;0.70;0.40;;;18.50;1.00;;;;;;5521920;26;20487;-59
2024/04/15 01:00:41;;;;;;;4.43;0.60;;;18.40;1.00;;;;;;5528133;26;20452;-58
2024/04/15 01:03:08;;;;;;;0.63;0.33;;;18.40;1.00;;;;;;5519954;26;20462;-57
2024/04/15 01:05:37;;;;;;;2.13;0.70;;;18.20;69.10;;;;;;5491759;26;20778;-56
2024/04/15 01:08:04;;;;;;;1.40;0.50;;;18.10;1.00;;;;;;5491820;26;20506;-58
2024/04/15 01:10:33;;;;;;;0.50;0.30;;;17.70;1.00;;;;;;5491359;26;20434;-54
2024/04/15 01:13:02;;;;;;;0.90;0.50;;;17.70;1.00;;;;;;5491361;26;20458;-56
2024/04/15 01:15:30;;;;;;;0.60;0.30;;;17.60;1.00;;;;;;5494292;26;20478;-53
2024/04/15 01:17:57;;;;;;;1.13;0.40;;;17.50;1.00;;;;;;5522371;26;20499;-56
2024/04/15 01:20:26;;;;;;;1.03;0.40;;;17.30;1.00;;;;;;5494148;26;20472;-57
2024/04/15 01:22:55;;;;;;;1.47;0.50;;;17.30;1.00;;;;;;5514306;25;20456;-56
2024/04/15 01:25:26;;;;;;;0.57;0.40;;;17.20;1.00;;;;;;5487140;26;20442;-57
2024/04/15 01:27:53;;;;;;;0.63;0.40;;;17.00;1.00;;;;;;5495634;26;20509;-58
2024/04/15 01:30:22;;;;;;;1.17;0.30;;;17.00;1.00;;;;;;5523608;26;20464;-57
2024/04/15 01:32:48;;;;;;;1.80;0.40;;;17.10;1.00;;;;;;5505150;26;20517;-57
2024/04/15 01:35:20;;;;;;;0.67;0.30;;;17.10;1.00;;;;;;5492952;26;20573;-58
2024/04/15 01:37:46;;;;;;;3.60;0.40;;;17.20;1.00;;;;;;5491862;26;20454;-58
2024/04/15 01:40:14;;;;;;;0.60;0.30;;;17.20;99.90;;;;;;5512449;26;20539;-59
2024/04/15 01:42:43;;;;;;;0.60;0.30;;;17.20;99.90;;;;;;5501819;26;20474;-58
2024/04/15 01:45:12;;;;;;;1.53;0.40;;;17.20;99.90;;;;;;5526846;26;20945;-58
2024/04/15 01:47:38;;;;;;;1.77;0.40;;;17.20;99.90;;;;;;5503396;26;21143;-58
2024/04/15 01:50:07;;;;;;;0.70;0.30;;;17.00;99.90;;;;;;5516563;26;20464;-58
2024/04/15 01:52:33;;;;;;;1.00;0.40;;;17.00;99.90;;;;;;5465450;26;20516;-58
2024/04/15 01:55:02;;;;;;;0.73;0.30;;;16.90;99.90;;;;;;5523269;26;20449;-58
2024/04/15 01:57:28;;;;;;;0.43;0.30;;;16.80;29.30;;;;;;5527104;26;20701;-58
2024/04/15 01:59:59;;;;;;;0.80;0.30;;;16.70;99.90;;;;;;5525244;26;20480;-59
2024/04/15 02:02:25;;;;;;;0.43;0.30;;;16.80;39.40;;;;;;5496607;26;20462;-60
2024/04/15 02:04:54;;;;;;;0.50;0.30;;;16.70;1.00;;;;;;5501529;26;20765;-59
2024/04/15 02:07:20;;;;;;;0.60;0.30;;;16.70;1.00;;;;;;5525894;26;20461;-60
2024/04/15 02:09:48;;;;;;;0.60;0.37;;;16.80;1.00;;;;;;5522705;26;20553;-58
2024/04/15 02:12:15;;;;;;;0.57;0.40;;;16.70;99.90;;;;;;5522038;26;20466;-58
2024/04/15 02:14:43;;;;;;;0.63;0.40;;;16.70;1.00;;;;;;5516951;26;20547;-59
2024/04/15 02:17:12;;;;;;;0.40;0.20;;;16.70;99.90;;;;;;5525839;26;20474;-58
2024/04/15 02:19:40;;;;;;;0.77;0.30;;;16.80;1.00;;;;;;5500374;26;20466;-58
2024/04/15 02:22:06;;;;;;;0.83;0.30;;;16.70;1.00;;;;;;5523261;26;20468;-59
2024/04/15 02:24:35;;;;;;;0.60;0.23;;;16.80;99.90;;;;;;5528546;26;20600;-58
2024/04/15 02:27:01;;;;;;;0.50;0.30;;;16.80;99.90;;;;;;5518376;26;20517;-59
2024/04/15 02:29:30;;;;;;;0.40;0.20;;;16.80;1.00;;;;;;5499645;26;20474;-60
2024/04/15 02:31:57;;;;;;;0.43;0.30;;;16.80;1.00;;;;;;5501177;26;20507;-59
2024/04/15 02:34:29;;;;;;;0.80;0.20;;;16.70;99.90;;;;;;5502725;26;21074;-59
2024/04/15 02:36:56;;;;;;;0.60;0.30;;;16.60;99.90;;;;;;5492495;26;20515;-59
2024/04/15 02:39:24;;;;;;;0.40;0.30;;;16.60;1.00;;;;;;5489353;26;20525;-59
2024/04/15 02:41:51;;;;;;;0.43;0.30;;;16.60;99.90;;;;;;5509265;26;20465;-59
2024/04/15 02:44:20;;;;;;;0.60;0.30;;;16.70;99.90;;;;;;5490636;26;20537;-59
2024/04/15 02:46:46;;;;;;;0.50;0.30;;;16.70;99.90;;;;;;5492647;26;20711;-59
2024/04/15 02:49:14;;;;;;;0.60;0.30;;;16.80;99.90;;;;;;5516230;26;20542;-59
2024/04/15 02:51:43;;;;;;;0.77;0.30;;;16.80;99.90;;;;;;5519747;26;20524;-58
2024/04/15 02:54:12;;;;;;;0.70;0.30;;;16.90;1.00;;;;;;5489638;26;20522;-59
2024/04/15 02:56:38;;;;;;;0.97;0.30;;;17.00;1.00;;;;;;5492240;26;20457;-59
2024/04/15 02:59:06;;;;;;;0.50;0.37;;;17.00;1.00;;;;;;5492149;26;20537;-59
2024/04/15 03:01:32;;;;;;;1.17;0.30;;;16.90;1.00;;;;;;5498097;26;20460;-58
2024/04/15 03:04:01;;;;;;;0.93;0.40;;;16.90;99.90;;;;;;5509520;26;20535;-58
2024/04/15 03:06:27;;;;;;;0.60;0.30;;;16.90;1.00;;;;;;5499953;26;20476;-59
2024/04/15 03:08:58;;;;;;;0.40;0.30;;;16.90;1.00;;;;;;5514801;26;20899;-59
2024/04/15 03:11:24;;;;;;;1.77;0.40;;;16.90;48.10;;;;;;5491507;26;20470;-58
2024/04/15 03:13:53;;;;;;;0.97;0.30;;;16.80;99.90;;;;;;5493457;26;20568;-60
2024/04/15 03:16:19;;;;;;;0.50;0.30;;;16.80;27.60;;;;;;5517196;26;20502;-60
2024/04/15 03:18:48;;;;;;;0.60;0.33;;;16.70;1.00;;;;;;5525543;26;20551;-59
2024/04/15 03:21:14;;;;;;;0.70;0.40;;;16.60;99.90;;;;;;5524035;26;20520;-59
2024/04/15 03:23:43;;;;;;;0.57;0.30;;;16.60;1.00;;;;;;5521822;26;20993;-59
2024/04/15 03:26:12;;;;;;;2.20;0.33;;;16.60;1.00;;;;;;5516786;26;20468;-59
2024/04/15 03:28:40;;;;;;;0.60;0.33;;;16.60;1.00;;;;;;5495774;26;20759;-60
2024/04/15 03:31:06;;;;;;;1.50;0.30;;;16.60;99.90;;;;;;5488753;26;20512;-60
2024/04/15 03:33:35;;;;;;;0.50;0.27;;;16.50;1.00;;;;;;5493709;26;20903;-59
2024/04/15 03:36:01;;;;;;;1.03;0.30;;;16.50;97.10;;;;;;5522626;26;20456;-59
2024/04/15 03:38:29;;;;;;;0.43;0.27;;;16.50;1.00;;;;;;5486193;26;20926;-59
2024/04/15 03:40:58;;;;;;;0.50;0.30;;;16.30;13.20;;;;;;5486049;26;20504;-59
2024/04/15 03:43:29;;;;;;;0.60;0.33;;;16.30;1.00;;;;;;5486063;26;20442;-59
2024/04/15 03:45:55;;;;;;;0.70;0.30;;;16.30;99.90;;;;;;5486500;26;20446;-60
2024/04/15 03:48:24;;;;;;;0.70;0.40;;;16.20;99.90;;;;;;5507879;26;20550;-60
2024/04/15 03:50:50;;;;;;;0.60;0.30;;;16.10;1.00;;;;;;5480306;26;20526;-59
2024/04/15 03:53:19;;;;;;;0.70;0.33;;;16.20;13.80;;;;;;5517264;25;20468;-60
2024/04/15 03:55:51;;;;;;;0.60;0.37;;;16.20;83.70;;;;;;5490488;26;20497;-59
2024/04/15 03:58:20;;;;;;;0.50;0.30;;;16.10;99.90;;;;;;5489990;26;20861;-59
2024/04/15 04:00:49;;;;;;;0.60;0.43;;;16.00;1.00;;;;;;5487866;26;20461;-60
2024/04/15 04:03:18;;;;;;;0.53;0.33;;;16.10;99.90;;;;;;5493020;26;20599;-60
2024/04/15 04:05:51;;;;;;;0.50;0.30;;;16.00;99.90;;;;;;5487301;26;20513;-59
2024/04/15 04:08:20;;;;;;;0.70;0.30;;;16.00;99.90;;;;;;5517312;26;20521;-59
2024/04/15 04:10:46;;;;;;;0.50;0.20;;;16.10;1.00;;;;;;5524569;26;20495;-59
2024/04/15 04:13:14;;;;;;;0.57;0.30;;;16.30;1.00;;;;;;5529031;26;20528;-59
2024/04/15 04:15:41;;;;;;;0.40;0.20;;;16.40;99.90;;;;;;5506399;26;20527;-59
2024/04/15 04:18:12;;;;;;;0.60;0.30;;;16.30;1.00;;;;;;5528376;26;20523;-59
2024/04/15 04:20:38;;;;;;;0.60;0.30;;;16.30;1.00;;;;;;5526924;26;20452;-59
2024/04/15 04:23:07;;;;;;;1.13;0.30;;;16.30;99.50;;;;;;5527548;26;20560;-58
2024/04/15 04:25:33;;;;;;;1.07;0.30;;;16.20;99.90;;;;;;5522758;26;20504;-59
2024/04/15 04:28:01;;;;;;;0.60;0.40;;;16.20;1.00;;;;;;5494836;26;20541;-58
2024/04/15 04:30:27;;;;;;;0.77;0.40;;;16.30;99.90;;;;;;5522770;26;20516;-60
2024/04/15 04:32:56;;;;;;;0.57;0.30;;;16.20;60.30;;;;;;5527592;26;20524;-57
2024/04/15 04:35:25;;;;;;;0.40;0.30;;;16.20;1.00;;;;;;5491715;26;20508;-59
2024/04/15 04:37:53;;;;;;;0.50;0.40;;;16.10;1.00;;;;;;5490175;26;20515;-60
2024/04/15 04:40:19;;;;;;;0.50;0.33;;;16.10;99.90;;;;;;5486694;26;20446;-59
2024/04/15 04:42:48;;;;;;;0.70;0.40;;;16.00;99.90;;;;;;5484320;26;20462;-59
2024/04/15 04:45:15;;;;;;;0.60;0.30;;;16.00;1.00;;;;;;5485932;26;20465;-60
2024/04/15 04:47:43;;;;;;;0.70;0.30;;;15.90;1.00;;;;;;5485500;26;20453;-59
2024/04/15 04:50:10;;;;;;;0.50;0.30;;;16.00;1.00;;;;;;5482903;26;20793;-59
2024/04/15 04:52:41;;;;;;;0.57;0.23;;;16.00;99.90;;;;;;5485154;26;20529;-59
2024/04/15 04:55:07;;;;;;;0.40;0.20;;;16.00;99.90;;;;;;5485031;26;20911;-58
2024/04/15 04:57:36;;;;;;;0.63;0.30;;;16.00;1.00;;;;;;5517821;26;20540;-59
2024/04/15 05:00:03;;;;;;;0.50;0.30;;;16.10;6.20;;;;;;5507686;26;20526;-59
2024/04/15 05:02:31;;;;;;;0.67;0.33;;;16.10;1.00;;;;;;5486922;26;21035;-58
2024/04/15 05:04:57;;;;;;;0.70;0.30;;;16.10;1.00;;;;;;5513331;26;20539;-57
2024/04/15 05:07:26;;;;;;;0.50;0.30;;;16.10;1.00;;;;;;5513507;26;20513;-59
2024/04/15 05:09:55;;;;;;;0.80;0.47;;;16.20;99.90;;;;;;5471154;26;20452;-59
2024/04/15 05:12:23;;;;;;;0.50;0.30;;;16.10;99.90;;;;;;5505239;26;20549;-60
2024/04/15 05:14:50;;;;;;;1.93;0.30;;;16.20;99.90;;;;;;5509657;26;20461;-59
2024/04/15 05:17:19;;;;;;;0.50;0.20;;;16.10;1.00;;;;;;5495803;26;20585;-59
2024/04/15 05:19:46;;;;;;;0.40;0.20;;;16.10;1.00;;;;;;5493301;26;20457;-59
2024/04/15 05:22:14;;;;;;;0.60;0.20;;;16.10;99.90;;;;;;5488864;26;20548;-58
2024/04/15 05:24:41;;;;;;;1.17;0.40;;;16.00;1.00;;;;;;5489792;26;20890;-58
2024/04/15 05:27:12;;;;;;;0.50;0.30;;;15.90;1.00;;;;;;5520826;26;20473;-59
2024/04/15 05:29:38;;;;;;;0.50;0.20;;;15.90;1.00;;;;;;5521491;26;20735;-58
2024/04/15 05:32:07;;;;;;;0.30;0.23;;;15.90;1.00;;;;;;5513506;26;20460;-59
2024/04/15 05:34:35;;;;;;;0.40;0.30;;;15.90;99.90;;;;;;5518829;26;20445;-60
2024/04/15 05:37:04;;;;;;;2.33;0.40;;;15.90;99.90;;;;;;5522589;26;20445;-60
2024/04/15 05:39:31;;;;;;;0.80;0.20;;;15.80;1.00;;;;;;5483389;26;20465;-60
2024/04/15 05:41:59;;;;;;;0.33;0.20;;;15.80;1.00;;;;;;5476682;26;20537;-59
2024/04/15 05:44:28;;;;;;;0.60;0.30;;;15.90;1.00;;;;;;5485754;26;20525;-60
2024/04/15 05:46:57;;;;;;;0.40;0.20;;;15.80;99.90;;;;;;5488438;26;20550;-59
2024/04/15 05:49:23;;;;;;;0.47;0.20;;;15.60;99.90;;;;;;5502478;26;20448;-59
2024/04/15 05:51:51;;;;;;;1.00;0.30;;;15.50;1.00;;;;;;5503619;26;20562;-59
2024/04/15 05:54:22;;;;;;;0.60;0.30;;;15.60;99.90;;;;;;5485960;26;21121;-59
2024/04/15 05:56:48;;;;;;;0.87;0.23;;;15.70;1.00;;;;;;5508631;26;20473;-59
2024/04/15 05:59:16;;;;;;;0.77;0.30;;;15.60;99.90;;;;;;5496973;26;20534;-59
2024/04/15 06:01:45;;;;;;;0.60;0.30;;;15.50;1.00;;;;;;5486335;26;20791;-59
2024/04/15 06:04:14;;;;;;;1.67;0.30;;;15.50;1.00;;;;;;5506304;26;20569;-59
2024/04/15 06:06:40;;;;;;;1.17;0.20;;;15.50;1.00;;;;;;5488622;26;21221;-59
2024/04/15 06:09:08;;;;;;;0.40;0.30;;;15.60;99.90;;;;;;5484996;26;20570;-59
2024/04/15 06:11:34;;;;;;;1.40;0.23;;;15.60;99.90;;;;;;5487292;26;20575;-59
2024/04/15 06:14:03;;;;;;;0.60;0.30;;;15.50;99.90;;;;;;5463821;26;20463;-59
2024/04/15 06:16:29;;;;;;;1.67;0.73;;;15.70;99.90;;;;;;5477787;26;20449;-60
2024/04/15 06:19:00;;;;;;;1.33;0.20;;;15.80;99.90;;;;;;5454531;26;20450;-59
2024/04/15 06:21:26;;;;;;;0.40;0.20;;;15.80;17.60;;;;;;5470101;26;20489;-59
2024/04/15 06:23:55;;;;;;;0.70;0.30;;;15.70;1.00;;;;;;5472344;26;20525;-57
2024/04/15 06:26:21;;;;;;;0.50;0.30;;;15.60;99.90;;;;;;5451830;26;20555;-57
2024/04/15 06:28:50;;;;;;;2.83;0.20;;;15.70;99.90;;;;;;5424711;26;20522;-59
2024/04/15 06:31:16;;;;;;;0.50;0.30;;;15.60;1.00;;;;;;5451661;26;20453;-58
2024/04/15 06:33:45;;;;;;;0.30;0.20;;;15.40;99.90;;;;;;5432693;26;20779;-59
2024/04/15 06:36:13;;;;;;;1.37;0.30;;;15.30;99.90;;;;;;5468328;26;20498;-59
2024/04/15 06:38:42;;;;;;;1.30;0.30;;;15.30;99.90;;;;;;5447429;26;20556;-59
2024/04/15 06:41:08;;;;;;;1.23;0.27;;;15.40;1.00;;;;;;5472093;26;20467;-60
2024/04/15 06:43:37;;;;;;;0.50;0.20;;;15.40;99.90;;;;;;5435578;26;20464;-59
2024/04/15 06:46:03;;;;;;;0.40;0.30;;;15.50;1.00;;;;;;5413359;26;21160;-59
2024/04/15 06:48:32;;;;;;;0.67;0.40;;;15.40;99.90;;;;;;5457638;26;20471;-60
2024/04/15 06:50:58;;;;;;;0.40;0.20;;;15.40;99.90;;;;;;5443210;26;20485;-59
2024/04/15 06:53:29;;;;;;;0.50;0.20;;;15.50;1.00;;;;;;5460653;26;20521;-60
2024/04/15 06:55:55;;;;;;;0.53;0.20;;;15.60;99.90;;;;;;5462052;26;20466;-59
2024/04/15 06:58:24;;;;;;;1.03;0.30;;;15.70;99.90;;;;;;5444738;26;20467;-60
2024/04/15 07:00:50;;;;;;;2.50;0.30;;;15.70;99.90;;;;;;5454541;26;20545;-60
2024/04/15 07:03:19;;;;;;;0.70;0.23;;;15.70;99.90;;;;;;5464258;26;20886;-61
2024/04/15 07:05:45;;;;;;;0.60;0.20;;;15.70;99.90;;;;;;5425950;26;20517;-62
2024/04/15 07:08:14;;;;;;;0.50;0.30;;;15.90;99.90;;;;;;5463997;26;20530;-60
2024/04/15 07:10:42;;;;;;;1.23;0.30;;;15.80;52.60;;;;;;5441230;26;20463;-61
2024/04/15 07:13:11;;;;;;;0.40;0.20;;;15.70;99.90;;;;;;5472820;26;20467;-60
2024/04/15 07:15:37;;;;;;;0.80;0.60;;;15.40;99.90;;;;;;5459573;26;20467;-60
2024/04/15 07:18:06;;;;;;;0.40;0.20;;;15.30;33.80;;;;;;5460581;26;20535;-61
2024/04/15 07:20:32;;;;;;;0.60;0.23;;;15.40;99.90;;;;;;5443337;26;20463;-61
2024/04/15 07:23:01;;;;;;;0.50;0.30;;;15.40;1.00;;;;;;5444652;26;20525;-60
2024/04/15 07:25:27;;;;;;;0.90;0.30;;;15.40;99.90;;;;;;5463687;26;20502;-60
2024/04/15 07:27:59;;;;;;;0.43;0.27;;;15.60;99.90;;;;;;5453103;26;20530;-61
2024/04/15 07:30:25;;;;;;;0.50;0.20;;;15.80;99.90;;;;;;5426484;26;20993;-62
2024/04/15 07:32:54;;;;;;;1.37;0.30;;;15.80;56.90;;;;;;5466290;26;20731;-62
2024/04/15 07:35:20;;;;;;;0.50;0.30;;;15.90;1.00;;;;;;5465785;26;20568;-62
2024/04/15 07:37:49;;;;;;;0.70;0.37;;;15.80;1.00;;;;;;5466930;26;20467;-60
2024/04/15 07:40:15;;;;;;;0.70;0.23;;;15.70;1.00;;;;;;5415862;26;20462;-61
2024/04/15 07:42:44;;;;;;;0.93;0.33;;;15.80;1.00;;;;;;5438127;26;20582;-60
2024/04/15 07:45:12;;;;;;;0.50;0.30;;;15.80;1.00;;;;;;5428513;26;20804;-61
2024/04/15 07:47:41;;;;;;;0.47;0.30;;;15.80;1.00;;;;;;5466755;26;20530;-60
2024/04/15 07:50:07;;;;;;;1.73;0.40;;;15.90;1.00;;;;;;5448365;26;20520;-61
2024/04/15 07:52:36;;;;;;;1.27;0.30;;;15.70;1.00;;;;;;5478482;26;20459;-62
2024/04/15 07:55:03;;;;;;;0.60;0.40;;;15.50;1.00;;;;;;5465884;26;20496;-61
2024/04/15 07:57:32;;;;;;;2.93;0.20;;;15.60;99.90;;;;;;5464470;26;20519;-61
2024/04/15 07:59:58;;;;;;;1.20;0.33;;;15.60;22.10;;;;;;5478474;26;20820;-59
2024/04/15 08:02:29;;;;;;;0.60;0.33;;;15.80;99.90;;;;;;5456036;26;20526;-60
2024/04/15 08:04:55;;;;;;;1.03;0.30;;;15.70;99.90;;;;;;5472659;26;20461;-60
2024/04/15 08:07:24;;;;;;;0.70;0.30;;;15.70;99.90;;;;;;5475024;26;20814;-61
2024/04/15 08:09:50;;;;;;;0.60;0.30;;;15.80;99.90;;;;;;5456627;26;20459;-61
2024/04/15 08:12:19;;;;;;;1.33;0.40;;;15.90;99.90;;;;;;5478362;26;20761;-62
2024/04/15 08:14:45;;;;;;;1.50;0.40;;;16.00;99.90;;;;;;5458460;26;20461;-61
2024/04/15 08:17:14;;;;;;;2.03;0.37;;;16.00;99.90;;;;;;5473761;26;20572;-61
2024/04/15 08:19:42;;;;;;;1.00;0.50;;;16.00;99.90;;;;;;5462419;26;20353;-61
2024/04/15 08:22:11;;;;;;;0.50;0.37;;;16.00;1.00;;;;;;5483990;26;20737;-61
2024/04/15 08:24:40;;;;;;;2.20;0.30;;;16.00;1.00;;;;;;5467590;26;20462;-61
2024/04/15 08:27:06;;;;;;;0.83;0.33;;;15.90;1.00;;;;;;5472178;26;20506;-64
2024/04/15 08:29:34;;;;;;;0.60;0.40;;;15.70;1.00;;;;;;5478847;26;20473;-63
2024/04/15 08:32:00;;;;;;;0.77;0.37;;;15.40;1.00;;;;;;5456980;26;20467;-63
2024/04/15 08:34:29;;;;;;;0.83;0.40;;;15.20;99.90;;;;;;5473380;26;20535;-61
2024/04/15 08:36:57;;;;;;;1.57;0.50;;;15.20;99.90;;;;;;5471803;26;20490;-61
2024/04/15 08:39:26;;;;;;;2.30;0.60;;;15.40;1.00;;;;;;5434733;26;21084;-61
2024/04/15 08:41:58;;;;;;;1.20;0.40;;;15.60;1.00;;;;;;5447605;26;20478;-61
2024/04/15 08:44:28;;;;;;;0.87;0.50;;;15.70;1.00;;;;;;5452347;26;20463;-62
2024/04/15 08:46:58;;;;;;;1.67;0.80;;;15.80;1.00;;;;;;5444750;26;20510;-63
2024/04/15 08:49:27;;;;;;;2.00;0.40;;;15.90;1.00;;;;;;5428922;26;20949;-64
2024/04/15 08:51:59;;;;;;;1.63;0.47;;;15.80;99.90;;;;;;5427994;26;20509;-61
2024/04/15 08:54:28;;;;;;;0.70;0.40;;;15.70;99.90;;;;;;5415913;26;20475;-63
2024/04/15 08:56:59;;;;;;;0.70;0.40;;;15.90;1.00;;;;;;5417136;26;20477;-64
2024/04/15 08:59:28;;;;;;;2.47;0.50;;;16.10;99.90;;;;;;5421696;26;20584;-62
2024/04/15 09:01:54;;;;;;;1.00;0.50;;;16.30;1.00;;;;;;5435137;26;20510;-63
2024/04/15 09:04:23;;;;;;;4.30;0.60;;;16.50;99.90;;;;;;5438826;26;20716;-62
2024/04/15 09:06:49;;;;;;;0.77;0.40;;;16.60;1.00;;;;;;5447289;26;20467;-63
2024/04/15 09:09:21;;;;;;;0.53;0.40;;;16.50;1.00;;;;;;5432571;26;20872;-64
2024/04/15 09:11:48;;;;;;;1.60;0.40;;;16.40;1.00;;;;;;5444294;26;20774;-64
2024/04/15 09:14:16;;;;;;;0.53;0.33;;;16.20;1.00;;;;;;5459109;26;20514;-64
2024/04/15 09:16:43;;;;;;;0.70;0.40;;;16.10;99.90;;;;;;5478611;26;20508;-63
2024/04/15 09:19:12;;;;;;;1.00;0.50;;;16.00;99.90;;;;;;5456098;26;20464;-64
2024/04/15 09:21:38;;;;;;;1.03;0.40;;;15.90;1.00;;;;;;5481495;26;20513;-64
2024/04/15 09:24:08;;;;;;;2.03;0.30;;;16.10;99.90;;;;;;5474487;26;20494;-67
2024/04/15 09:26:37;;;;;;;1.20;0.53;;;16.20;1.00;;;;;;5484452;26;20461;-63
2024/04/15 09:29:05;;;;;;;1.33;0.40;;;16.60;1.00;;;;;;5464649;26;20899;-63
2024/04/15 09:31:31;;;;;;;1.77;0.63;;;16.90;1.00;;;;;;5477046;26;20450;-59
2024/04/15 09:34:02;;;;;;;0.50;0.30;;;17.10;1.00;;;;;;5461366;26;20517;-59
2024/04/15 09:36:29;;;;;;;2.10;0.50;;;17.30;99.90;;;;;;5470603;26;20459;-57
2024/04/15 09:38:59;;;;;;;2.30;0.40;;;17.60;99.90;;;;;;5469434;26;20530;-59
2024/04/15 09:41:25;;;;;;;1.23;0.40;;;17.80;1.00;;;;;;5494690;26;20462;-59
2024/04/15 09:43:57;;;;;;;0.83;0.30;;;17.80;1.00;;;;;;5450488;26;20721;-58
2024/04/15 09:46:29;;;;;;;0.70;0.40;;;18.00;1.00;;;;;;5443689;26;20459;-59
2024/04/15 09:48:59;;;;;;;0.83;0.40;;;18.10;1.00;;;;;;5453769;26;20576;-59
2024/04/15 09:51:28;;;;;;;0.50;0.30;;;18.10;1.00;;;;;;5444502;26;20483;-59
2024/04/15 09:54:01;;;;;;;0.40;0.30;;;17.70;1.00;;;;;;5443173;26;20554;-59
2024/04/15 09:56:29;;;;;;;0.60;0.40;;;17.10;1.00;;;;;;5461470;26;20481;-59
2024/04/15 09:59:02;;;;;;;0.90;0.40;;;17.10;1.00;;;;;;5452361;26;20460;-60
2024/04/15 10:01:31;;;;;;;0.57;0.40;;;16.90;1.00;;;;;;5447181;26;20534;-60
2024/04/15 10:04:04;;;;;;;0.77;0.40;;;16.90;1.00;;;;;;5449536;26;21443;-60
2024/04/15 10:06:36;;;;;;;0.57;0.37;;;17.00;1.00;;;;;;5446522;26;20478;-58
2024/04/15 10:09:07;;;;;;;0.53;0.37;;;16.90;1.00;;;;;;5451940;26;20478;-59
2024/04/15 10:11:34;;;;;;;0.60;0.30;;;16.90;1.00;;;;;;5449130;26;20477;-58
2024/04/15 10:14:06;;;;;;;0.67;0.30;;;17.30;1.00;;;;;;5447068;26;20478;-59
2024/04/15 10:16:35;;;;;;;0.60;0.30;;;17.60;1.00;;;;;;5451058;26;20571;-59
2024/04/15 10:19:04;;;;;;;0.50;0.30;;;17.80;1.00;;;;;;5498368;26;20524;-59
2024/04/15 10:21:30;;;;;;;0.70;0.40;;;17.80;99.90;;;;;;5450284;26;20482;-59
2024/04/15 10:23:59;;;;;;;0.70;0.30;;;17.90;99.90;;;;;;5443233;26;20530;-60
2024/04/15 10:26:27;;;;;;;1.23;0.40;;;18.10;99.90;;;;;;5453442;26;20466;-60
2024/04/15 10:29:18;;;;;;;0.53;0.30;;;18.50;99.90;;;;;;5499096;26;20832;-59
2024/04/15 10:31:50;;;;;;;0.60;0.40;;;18.70;99.90;;;;;;5482352;26;20497;-59
2024/04/15 10:34:19;;;;;;;0.93;0.40;;;18.70;99.90;;;;;;5485852;26;20453;-59
2024/04/15 10:36:48;;;;;;;0.90;0.20;;;18.60;99.90;;;;;;5479879;26;20454;-58
2024/04/15 10:39:18;;;;;;;0.50;0.30;;;18.20;99.90;;;;;;5474626;26;20922;-58
2024/04/15 10:41:46;;;;;;;1.00;0.40;;;18.00;99.90;;;;;;5477462;26;20952;-61
2024/04/15 10:44:18;;;;;;;1.23;0.40;;;17.70;99.90;;;;;;5471869;26;20469;-62
2024/04/15 10:46:45;;;;;;;0.63;0.30;;;17.60;99.90;;;;;;5478358;26;21024;-61
2024/04/15 10:49:14;;;;;;;1.53;0.30;;;17.40;99.90;;;;;;5450955;26;20519;-62
2024/04/15 10:51:40;;;;;;;0.50;0.30;;;17.30;99.90;;;;;;5454849;26;21635;-63
2024/04/15 10:54:10;;;;;;;0.60;0.30;;;17.20;99.90;;;;;;5453884;26;21227;-61
2024/04/15 10:56:36;;;;;;;0.60;0.30;;;17.40;99.90;;;;;;5447940;26;20461;-60
2024/04/15 10:59:05;;;;;;;0.50;0.30;;;17.40;99.90;;;;;;5462093;26;20475;-61
2024/04/15 11:01:35;;;;;;;0.80;0.30;;;17.40;99.90;;;;;;5478759;26;20510;-60
2024/04/15 11:04:08;;;;;;;0.50;0.30;;;17.50;99.90;;;;;;5455614;26;20960;-60
2024/04/15 11:06:34;;;;;;;0.50;0.30;;;17.50;99.90;;;;;;5472119;26;20482;-62
2024/04/15 11:09:03;;;;;;;0.87;0.37;;;17.60;99.90;;;;;;5475047;26;20548;-61
2024/04/15 11:11:29;;;;;;;0.50;0.20;;;17.70;99.90;;;;;;5473460;26;21549;-61
2024/04/15 11:13:58;;;;;;;1.83;0.30;;;17.80;99.90;;;;;;5451495;26;20486;-61
2024/04/15 11:16:24;;;;;;;0.83;0.37;;;17.90;99.90;;;;;;5453083;26;20975;-61
2024/04/15 11:18:56;;;;;;;0.70;0.30;;;18.00;99.90;;;;;;5454083;26;20463;-61
2024/04/15 11:21:22;;;;;;;0.50;0.30;;;18.10;99.90;;;;;;5486530;26;20777;-63
2024/04/15 11:23:50;;;;;;;1.33;0.30;;;18.00;99.90;;;;;;5510489;26;20472;-62
2024/04/15 11:26:19;;;;;;;0.60;0.30;;;17.80;99.90;;;;;;5522191;26;20592;-61
2024/04/15 11:28:47;;;;;;;2.65;0.40;;;17.70;99.90;;;;;;5517639;26;20348;-61
2024/04/15 11:31:14;;;;;;;1.37;0.40;;;17.80;99.90;;;;;;5461023;26;20531;-62
2024/04/15 11:33:42;;;;;;;1.67;0.40;;;18.00;99.90;;;;;;5446694;26;21046;-61
2024/04/15 11:36:17;;;;;;;0.97;0.40;;;17.80;99.90;;;;;;5510827;26;20525;-61
2024/04/15 11:38:46;;;;;;;0.87;0.40;;;17.70;99.90;;;;;;5491398;26;20922;-62
2024/04/15 11:41:13;;;;;;;1.10;0.40;;;17.70;99.90;;;;;;5484717;26;21049;-62
2024/04/15 11:43:42;;;;;;;0.40;0.20;;;17.50;99.90;;;;;;5482610;26;20550;-62
2024/04/15 11:46:16;;;;;;;1.33;0.50;;;17.50;99.90;;;;;;5472989;26;20561;-62
2024/04/15 11:48:45;;;;;;;4.60;0.40;;;17.50;99.90;;;;;;5461229;26;20584;-61
2024/04/15 11:51:11;;;;;;;1.43;0.43;;;17.60;99.90;;;;;;5449215;26;20459;-61
2024/04/15 11:53:42;;;;;;;2.73;0.40;;;17.50;99.90;;;;;;5447365;26;20523;-61
2024/04/15 11:56:08;;;;;;;0.60;0.30;;;17.30;1.00;;;;;;5445687;26;21139;-61
2024/04/15 11:58:37;;;;;;;0.80;0.37;;;17.10;99.90;;;;;;5444900;26;20471;-60
2024/04/15 12:01:04;;;;;;;0.80;0.27;;;16.80;1.00;;;;;;5445467;26;20470;-60
2024/04/15 12:03:34;;;;;;;1.77;0.40;;;16.50;99.90;;;;;;5470096;26;20902;-58
2024/04/15 12:06:05;;;;;;;2.03;0.27;;;16.40;55.20;;;;;;5464278;26;20473;-58
2024/04/15 12:08:37;;;;;;;0.90;0.30;;;16.40;1.00;;;;;;5446053;26;20983;-59
2024/04/15 12:11:10;;;;;;;0.83;0.40;;;16.30;1.00;;;;;;5452645;26;20469;-59
2024/04/15 12:13:39;;;;;;;0.57;0.20;;;16.40;1.00;;;;;;5476307;26;20528;-59
2024/04/15 12:16:05;;;;;;;0.50;0.30;;;16.40;1.00;;;;;;5486596;26;20450;-59
2024/04/15 12:18:34;;;;;;;2.10;0.40;;;16.40;1.00;;;;;;5485283;26;21158;-60
2024/04/15 12:21:00;;;;;;;1.63;0.40;;;16.40;1.00;;;;;;5472827;26;20469;-59
2024/04/15 12:23:29;;;;;;;1.43;0.40;;;16.60;1.00;;;;;;5446279;26;20522;-60
2024/04/15 12:25:55;;;;;;;2.70;0.40;;;17.10;1.00;;;;;;5445191;26;20592;-59
2024/04/15 12:28:26;;;;;;;3.03;0.50;;;17.50;99.90;;;;;;5465802;26;20461;-58
2024/04/15 12:30:52;;;;;;;1.30;0.40;;;17.60;1.00;;;;;;5471327;26;20451;-60
2024/04/15 12:33:21;;;;;;;0.87;0.50;;;17.70;1.00;;;;;;5455210;26;21063;-59
2024/04/15 12:35:48;;;;;;;1.03;0.50;;;18.00;1.00;;;;;;5482346;26;20774;-59
2024/04/15 12:38:17;;;;;;;0.80;0.50;;;18.10;1.00;;;;;;5476289;26;20475;-61
2024/04/15 12:40:43;;;;;;;2.57;0.30;;;17.70;1.00;;;;;;5450323;26;20447;-61
2024/04/15 12:43:12;;;;;;;1.00;0.47;;;17.50;99.90;;;;;;5446317;26;21033;-62
2024/04/15 12:45:41;;;;;;;1.43;0.40;;;17.30;28.20;;;;;;5479807;26;20552;-62
2024/04/15 12:48:17;;;;;;;1.67;0.43;;;17.30;1.00;;;;;;5478175;26;20470;-59
2024/04/15 12:50:44;;;;;;;1.53;0.40;;;17.50;80.50;;;;;;5449515;26;20466;-58
2024/04/15 12:53:13;;;;;;;0.60;0.30;;;17.70;99.90;;;;;;5455878;26;20520;-59
2024/04/15 12:55:40;;;;;;;0.90;0.47;;;17.90;99.90;;;;;;5440977;26;20487;-60
2024/04/15 12:58:10;;;;;;;1.43;0.33;;;18.00;99.90;;;;;;5439560;26;20564;-62